SBSC

Details ICAO SBSC (STU)
Name SANTA CRUZ
Region Brazil
Timezone America/Sao_Paulo (UTC-3.0)
Plans Departing 24
Arriving 23
Stats Elevation 10 ft / 3 m (AMSL)
Location -22.932489° -43.719090°
Runways 1
Magnetic Variation 22.632° W
Sunrise 2018-05-26 09:27:06 UTC / 2018-05-26 06:27:06 Local
Sunset 2018-05-26 20:19:39 UTC / 2018-05-26 17:19:39 Local
Advertisement - Login to hide

Runways

ID Width Length Bearing (true) Bearing (mag) Surface Threshold Offset Overrun Length
05 148 ft / 45 m 9,039 ft / 2,755 m 24.13° 46.76° Asphalt 0 ft / 0 m 1,145 ft / 349 m
23 148 ft / 45 m 9,039 ft / 2,755 m 204.12° 226.75° Asphalt 0 ft / 0 m 1,145 ft / 349 m

Map

Weather


0- 5 10 15 20 25 30 35+ Temperature / ° C

Clouds and Precipitation
Forecast for 2018-05-27 00:00 UTC. Updated 3 hours ago

Ground ~20,000 ft ~40,000 ft Winds

METAR

SBSC 270100Z 00000KT 9999 FEW015 SCT070 18/17 Q1022

TAF

TAF SBSC 262200Z 2700/2712 14008KT 9999 FEW030 TN19/2708Z TX22/2712Z BECMG 2700/2702 SCT020 BECMG 2710/2712 SCT025 RMK PER

Frequencies

Ground 121.80 MHz GND
Tower 118.80 MHz TWR
Approach 133.70 MHz APP
Tower 122.90 MHz TWR
Approach 132.50 MHz APP
Warning: Do not use this data for real-world aviation or navigation. No guarantee of current accuracy is given.